Terminal Aerodrome Forecast
Issued by NWS

Home | Current Version | Previous Version | Text Only | Print | Product List | Glossary On
Versions: 1 2 3 4 5 6 7 8 9 10 11 12 13 14 15
518
FTUS46 KMTR 242338
TAFSNS
TAF
KSNS 242338Z 2500/2524 29014KT P6SM SCT018 BKN250
      TEMPO 2500/2504 BKN018 OVC250
     FM250400 26006KT P6SM OVC012
     FM251730 24008KT P6SM SCT025=

USA.gov is the U.S. government's official web portal to all federal, state and local government web resources and services.